createdAt,value
2023-04-03T16:02:10.893Z,5.20
2023-04-03T16:03:46.353Z,6.60
2023-04-03T16:05:18.617Z,4.40
2023-04-03T16:06:50.661Z,6.60
2023-04-03T16:08:22.556Z,6.20
2023-04-03T16:09:54.504Z,5.40
2023-04-03T16:11:27.177Z,4.40
2023-04-03T16:12:59.115Z,4.20
2023-04-03T16:14:31.642Z,5.00
2023-04-03T16:16:03.718Z,4.40
2023-04-03T16:17:36.360Z,3.80
2023-04-03T16:19:08.489Z,4.80
2023-04-03T16:20:40.786Z,4.40
2023-04-03T16:22:12.969Z,3.00
2023-04-03T16:23:45.499Z,5.00
2023-04-03T16:25:17.480Z,3.80
2023-04-03T16:26:49.334Z,4.00
2023-04-03T16:28:21.390Z,3.00
2023-04-03T16:29:53.309Z,4.00
2023-04-03T16:31:25.448Z,4.80
2023-04-03T16:32:57.677Z,3.80
2023-04-03T16:34:31.937Z,3.00
2023-04-03T16:36:07.003Z,4.60
2023-04-03T16:37:39.932Z,4.20
2023-04-03T16:39:11.837Z,3.20
2023-04-03T16:40:44.420Z,3.00
2023-04-03T16:42:16.818Z,4.40
2023-04-03T16:43:48.967Z,2.20
2023-04-03T16:45:20.928Z,3.00
2023-04-03T16:46:52.953Z,4.00
2023-04-03T16:48:24.892Z,4.00
2023-04-03T16:49:56.947Z,3.00
2023-04-03T16:51:28.954Z,4.60
2023-04-03T16:53:00.981Z,2.00
2023-04-03T16:54:32.858Z,4.00
2023-04-03T16:56:04.837Z,1.60
2023-04-03T16:57:36.765Z,4.00
2023-04-03T16:59:08.953Z,1.20
2023-04-03T17:00:40.918Z,3.80
2023-04-03T17:02:12.865Z,4.00
2023-04-03T17:03:44.832Z,3.40
2023-04-03T17:05:16.809Z,2.80
2023-04-03T17:06:48.847Z,4.00
2023-04-03T17:08:20.717Z,2.80
2023-04-03T17:09:54.485Z,2.00
2023-04-03T17:11:26.893Z,3.20
2023-04-03T17:12:58.830Z,2.40
2023-04-03T17:14:30.810Z,3.00
2023-04-03T17:16:04.121Z,0.00
2023-04-03T17:17:36.349Z,3.60
2023-04-03T17:19:08.250Z,2.40
2023-04-03T17:20:40.186Z,4.00
2023-04-03T17:22:12.319Z,17.00
2023-04-03T17:23:45.848Z,28.40
2023-04-03T17:25:18.069Z,35.50
2023-04-03T17:26:50.003Z,43.25
2023-04-03T17:28:25.774Z,46.00
2023-04-03T17:29:58.064Z,58.00
2023-04-03T17:31:29.989Z,53.00
2023-04-03T17:33:01.858Z,65.60
2023-04-03T17:34:33.944Z,64.20
2023-04-03T17:36:06.229Z,56.25
2023-04-03T17:37:38.092Z,59.75
2023-04-03T17:39:10.041Z,72.80
2023-04-03T17:40:43.560Z,80.75
2023-04-03T17:42:16.329Z,67.20
2023-04-03T17:43:48.313Z,69.20
2023-04-03T17:45:20.550Z,69.80
2023-04-03T17:46:52.493Z,72.20
2023-04-03T17:48:26.247Z,71.20
2023-04-03T17:49:58.271Z,74.80
2023-04-03T17:51:30.396Z,79.00
2023-04-03T17:53:02.404Z,64.50
2023-04-03T17:54:34.486Z,74.50
2023-04-03T17:56:10.750Z,71.20
2023-04-03T17:57:42.693Z,76.20
2023-04-03T17:59:16.509Z,71.40
2023-04-03T18:00:48.662Z,73.80
2023-04-03T18:02:20.749Z,69.00
2023-04-03T18:03:54.069Z,76.60
2023-04-03T18:05:29.500Z,79.60
2023-04-03T18:07:01.468Z,87.50
2023-04-03T18:08:35.842Z,80.50
2023-04-03T18:10:09.250Z,83.00
2023-04-03T18:11:41.487Z,95.50
2023-04-03T18:13:14.801Z,96.25
2023-04-03T18:14:47.348Z,96.00
2023-04-03T18:16:19.318Z,96.00
2023-04-03T18:17:56.725Z,92.25
2023-04-03T18:19:30.025Z,95.00
2023-04-03T18:21:02.408Z,94.75
2023-04-03T18:22:34.253Z,95.50
2023-04-03T18:24:07.996Z,96.00
2023-04-03T18:25:39.891Z,89.50
2023-04-03T18:27:15.916Z,94.25
2023-04-03T18:28:51.454Z,90.25
2023-04-03T18:33:27.031Z,84.75
2023-04-03T18:35:00.007Z,82.00
2023-04-03T18:36:32.013Z,83.50
2023-04-03T18:38:04.819Z,80.50
2023-04-03T18:39:36.963Z,73.60
2023-04-03T18:41:09.472Z,79.75
2023-04-03T18:42:41.490Z,78.75
2023-04-03T18:44:14.714Z,72.40
2023-04-03T18:45:46.908Z,72.60
2023-04-03T18:47:19.211Z,74.20
2023-04-03T18:48:51.368Z,83.25
2023-04-03T18:50:23.378Z,81.75
2023-04-03T18:51:55.510Z,71.40
2023-04-03T18:53:27.473Z,71.20
2023-04-03T18:54:59.373Z,64.60
2023-04-03T18:56:31.435Z,60.00
2023-04-03T18:58:03.297Z,53.25
2023-04-03T18:59:35.222Z,51.75
2023-04-03T19:01:07.121Z,53.50
2023-04-03T19:02:39.443Z,45.50
2023-04-03T19:04:11.758Z,46.25
2023-04-03T19:05:43.895Z,39.25
2023-04-03T19:07:16.068Z,39.00
2023-04-03T19:08:49.526Z,35.33
2023-04-03T19:10:21.522Z,33.50
2023-04-03T19:11:53.634Z,31.60
2023-04-03T19:13:26.964Z,31.20
2023-04-03T19:14:58.897Z,32.60
2023-04-03T19:16:30.901Z,29.40
2023-04-03T19:18:02.878Z,30.60
2023-04-03T19:19:34.984Z,26.60
2023-04-03T19:21:07.100Z,24.20
2023-04-03T19:22:39.206Z,23.40
2023-04-03T19:24:11.772Z,23.20
2023-04-03T19:25:44.064Z,21.40
2023-04-03T19:27:16.168Z,19.80
2023-04-03T19:28:50.806Z,17.60
2023-04-03T19:30:23.859Z,14.80
2023-04-03T19:31:55.957Z,18.80
2023-04-03T19:33:28.088Z,17.00
2023-04-03T19:35:00.193Z,17.60
2023-04-03T19:36:34.228Z,19.40
2023-04-03T19:38:06.158Z,16.80
2023-04-03T19:39:38.645Z,15.00
2023-04-03T19:41:15.402Z,17.60
2023-04-03T19:42:47.374Z,32.80
2023-04-03T19:44:19.241Z,47.50
2023-04-03T19:45:51.293Z,49.50
2023-04-03T19:47:23.645Z,53.00
2023-04-03T19:48:55.760Z,56.50
2023-04-03T19:50:27.838Z,58.50
2023-04-03T19:51:59.908Z,58.25
2023-04-03T19:53:32.504Z,56.25
2023-04-03T19:55:04.673Z,65.40
2023-04-03T19:56:36.654Z,68.00
2023-04-03T19:58:08.556Z,68.00
2023-04-03T19:59:40.606Z,60.00
2023-04-03T20:01:12.569Z,68.60
2023-04-03T20:02:44.635Z,65.80
2023-04-03T20:04:16.705Z,64.40
2023-04-03T20:05:48.700Z,63.20
2023-04-03T20:07:20.676Z,68.40
2023-04-03T20:08:53.779Z,61.40
2023-04-03T20:10:26.044Z,64.60
2023-04-03T20:12:00.226Z,63.00
2023-04-03T20:13:33.289Z,62.40
2023-04-03T20:15:07.843Z,60.75
2023-04-03T20:16:40.325Z,56.75
2023-04-03T20:18:19.556Z,60.25
2023-04-03T20:19:51.446Z,60.00
2023-04-03T20:21:30.530Z,64.25
2023-04-03T20:23:02.471Z,66.00
2023-04-03T20:24:34.739Z,74.60
2023-04-03T20:26:13.654Z,71.25
2023-04-03T20:27:47.726Z,67.00
2023-04-03T20:29:19.779Z,71.75
2023-04-03T20:30:52.499Z,74.75
2023-04-03T20:32:24.442Z,71.80
2023-04-03T20:33:57.052Z,73.50
2023-04-03T20:35:28.961Z,73.75
2023-04-03T20:37:00.913Z,69.00
2023-04-03T20:38:32.919Z,69.40
2023-04-03T20:40:05.361Z,69.60
2023-04-03T20:41:38.742Z,64.80
2023-04-03T20:43:10.710Z,64.00
2023-04-03T20:44:46.113Z,66.40
2023-04-03T20:46:20.263Z,61.00
2023-04-03T20:47:54.210Z,62.50
2023-04-03T20:49:26.318Z,64.80
2023-04-03T20:50:58.936Z,70.00
2023-04-03T20:52:30.978Z,81.25
2023-04-03T20:54:03.283Z,75.25
2023-04-03T20:55:35.370Z,75.50
2023-04-03T20:57:07.390Z,78.25
2023-04-03T20:58:39.711Z,76.50
2023-04-03T21:00:13.933Z,78.75
2023-04-03T21:01:47.049Z,75.50
2023-04-03T21:03:19.412Z,75.00
2023-04-03T21:04:54.026Z,71.25
2023-04-03T21:07:03.742Z,78.25
2023-04-03T21:09:13.054Z,76.75
2023-04-03T21:11:23.854Z,109.50
2023-04-03T21:13:32.993Z,89.00
2023-04-03T21:15:45.367Z,77.25
2023-04-03T21:17:54.495Z,73.50
2023-04-03T21:19:26.478Z,62.50
2023-04-03T21:20:58.398Z,66.60
2023-04-03T21:22:30.460Z,67.20
2023-04-03T21:24:02.647Z,60.80
2023-04-03T21:25:34.572Z,58.00
2023-04-03T21:27:06.635Z,59.50
2023-04-03T21:28:38.677Z,54.50
2023-04-03T21:30:11.435Z,53.50
2023-04-03T21:31:54.723Z,55.50
2023-04-03T21:33:27.484Z,46.00
2023-04-03T21:34:59.596Z,52.75
2023-04-03T21:36:40.379Z,45.50
2023-04-03T21:38:12.323Z,47.00
2023-04-03T21:39:45.308Z,46.50
2023-04-03T21:41:17.262Z,42.75
2023-04-03T21:42:56.500Z,42.00
2023-04-03T21:44:28.800Z,39.75
2023-04-03T21:46:00.839Z,39.75
2023-04-03T21:47:32.892Z,38.50
2023-04-03T21:49:04.834Z,40.25
2023-04-03T21:50:37.309Z,37.00
2023-04-03T21:52:09.374Z,34.75
2023-04-03T21:53:42.110Z,33.50
2023-04-03T21:55:15.579Z,32.25
2023-04-03T21:56:51.830Z,33.25
2023-04-03T21:58:33.041Z,33.00
2023-04-03T22:00:07.782Z,32.25
2023-04-03T22:01:42.858Z,30.25
2023-04-03T22:03:24.175Z,30.20
2023-04-03T22:04:56.695Z,30.20
2023-04-03T22:06:28.725Z,31.60
2023-04-03T22:08:00.950Z,29.80
2023-04-03T22:09:32.948Z,29.20
2023-04-03T22:11:07.787Z,29.00
2023-04-03T22:12:39.658Z,28.00
2023-04-03T22:14:12.396Z,29.00
2023-04-03T22:15:47.537Z,29.20
2023-04-03T22:17:19.420Z,27.60
2023-04-03T22:18:52.963Z,26.60
2023-04-03T22:20:24.983Z,26.60
2023-04-03T22:21:57.387Z,24.60
2023-04-03T22:23:29.362Z,24.00
2023-04-03T22:25:02.231Z,23.60
2023-04-03T22:26:35.164Z,21.20
2023-04-03T22:28:07.086Z,20.60
2023-04-03T22:29:39.117Z,24.60
2023-04-03T22:31:13.640Z,29.00
2023-04-03T22:32:46.267Z,33.00
2023-04-03T22:34:18.267Z,36.25
